Time;durP1;ratioP1;P1;durP2;ratioP2;P2;SDS_P1;SDS_P2;PMS_P1;PMS_P2;Temp;Humidity;BMP_temperature;BMP_pressure;BME280_temperature;BME280_humidity;BME280_pressure;Samples;Min_cycle;Max_cycle;Signal;HPM_P1;HPM_P2
2022/12/03 00:00:09;;;;;;;0.10;0.10;;;2.10;99.90;0.70;97255.00;;;;5073715;28;20209;-74
2022/12/03 00:02:40;;;;;;;0.10;0.10;;;2.10;99.90;0.60;97248.00;;;;5073949;28;20224;-73
2022/12/03 00:05:10;;;;;;;0.10;0.10;;;2.00;99.90;0.60;97238.00;;;;5074001;28;20759;-74
2022/12/03 00:07:40;;;;;;;0.10;0.10;;;1.90;99.90;0.60;97230.00;;;;5073449;28;20254;-75
2022/12/03 00:10:09;;;;;;;0.10;0.10;;;1.90;99.90;0.50;97240.00;;;;5058506;28;20230;-74
2022/12/03 00:12:38;;;;;;;0.10;0.10;;;1.90;99.90;0.50;97254.00;;;;5072869;28;20217;-73
2022/12/03 00:15:08;;;;;;;0.10;0.10;;;1.90;99.90;0.60;97273.00;;;;5073746;28;20260;-73
2022/12/03 00:17:37;;;;;;;0.10;0.10;;;1.90;99.90;0.60;97267.00;;;;5073051;28;20208;-74
2022/12/03 00:20:07;;;;;;;0.10;0.10;;;2.00;99.90;0.60;97263.00;;;;5066004;28;20674;-74
2022/12/03 00:22:35;;;;;;;0.10;0.10;;;2.00;99.90;0.60;97233.00;;;;5074010;28;20194;-76
2022/12/03 00:25:06;;;;;;;0.10;0.10;;;2.00;99.90;0.60;97243.00;;;;5073661;28;20773;-77
2022/12/03 00:27:34;;;;;;;0.10;0.10;;;2.00;99.90;0.60;97242.00;;;;5073069;28;20221;-73
2022/12/03 00:30:02;;;;;;;0.10;0.10;;;2.00;99.90;0.60;97252.00;;;;5073434;28;20622;-74
2022/12/03 00:32:30;;;;;;;0.10;0.10;;;2.00;99.90;0.60;97244.00;;;;5073622;28;20213;-74
2022/12/03 00:34:59;;;;;;;0.10;0.10;;;2.00;99.90;0.60;97257.00;;;;5072147;28;20309;-75
2022/12/03 00:37:27;;;;;;;0.10;0.10;;;2.00;99.90;0.70;97248.00;;;;5073333;28;20607;-75
2022/12/03 00:39:56;;;;;;;0.10;0.10;;;2.00;99.90;0.70;97248.00;;;;5073160;28;20236;-74
2022/12/03 00:42:25;;;;;;;0.10;0.10;;;2.00;99.90;0.70;97258.00;;;;5074138;28;20224;-75
2022/12/03 00:44:53;;;;;;;0.10;0.10;;;2.00;99.90;0.70;97232.00;;;;5073104;28;20210;-74
2022/12/03 00:47:22;;;;;;;0.10;0.10;;;2.10;99.90;0.80;97244.00;;;;5072846;28;20264;-74
2022/12/03 00:49:50;;;;;;;0.10;0.10;;;2.10;99.90;0.80;97254.00;;;;5072924;28;20194;-73
2022/12/03 00:52:18;;;;;;;0.10;0.10;;;2.10;99.90;0.80;97240.00;;;;5073207;28;20221;-74
2022/12/03 00:54:46;;;;;;;0.10;0.10;;;2.10;99.90;0.80;97229.00;;;;5061625;28;20225;-74
2022/12/03 00:57:14;;;;;;;0.10;0.10;;;2.10;99.90;0.70;97237.00;;;;5073508;28;20220;-75
2022/12/03 00:59:43;;;;;;;0.10;0.10;;;2.10;99.90;0.70;97244.00;;;;5070677;28;20220;-75
2022/12/03 01:02:11;;;;;;;0.10;0.10;;;2.10;99.90;0.70;97246.00;;;;5073799;28;20255;-75
2022/12/03 01:04:40;;;;;;;0.10;0.10;;;2.10;99.90;0.70;97248.00;;;;5073376;28;20217;-74
2022/12/03 01:07:08;;;;;;;0.10;0.10;;;2.10;99.90;0.70;97243.00;;;;5072832;28;20542;-75
2022/12/03 01:09:36;;;;;;;0.10;0.10;;;2.10;99.90;0.70;97245.00;;;;5071253;28;20197;-75
2022/12/03 01:12:04;;;;;;;0.10;0.10;;;2.00;99.90;0.60;97234.00;;;;5061681;28;20267;-75
2022/12/03 01:14:32;;;;;;;0.10;0.10;;;2.00;99.90;0.60;97236.00;;;;5073058;28;20637;-74
2022/12/03 01:17:02;;;;;;;0.10;0.10;;;2.00;99.90;0.70;97254.00;;;;5072755;28;20214;-73
2022/12/03 01:19:30;;;;;;;0.10;0.10;;;2.00;99.90;0.60;97235.00;;;;5080876;28;20612;-74
2022/12/03 01:21:58;;;;;;;0.10;0.10;;;2.00;99.90;0.70;97232.00;;;;5080579;28;20596;-74
2022/12/03 01:24:26;;;;;;;0.10;0.10;;;2.00;99.90;0.60;97234.00;;;;5073194;28;20217;-73
2022/12/03 01:26:54;;;;;;;0.10;0.10;;;2.00;99.90;0.60;97235.00;;;;5072916;28;20194;-73
2022/12/03 01:29:23;;;;;;;0.10;0.10;;;1.90;99.90;0.60;97229.00;;;;5072018;28;20258;-74
2022/12/03 01:34:38;;;;;;;0.10;0.10;;;1.90;99.90;0.60;97220.00;;;;5072201;28;20237;-74
2022/12/03 01:37:06;;;;;;;0.10;0.10;;;1.90;99.90;0.60;97226.00;;;;5072870;28;20676;-75
2022/12/03 01:39:34;;;;;;;0.10;0.10;;;1.90;99.90;0.40;97231.00;;;;5072147;28;20202;-76
2022/12/03 01:42:03;;;;;;;0.10;0.10;;;1.80;99.90;0.50;97236.00;;;;5072274;28;20649;-76
2022/12/03 01:44:34;;;;;;;0.10;0.10;;;1.80;99.90;0.40;97245.00;;;;5071664;28;20293;-76
2022/12/03 01:47:06;;;;;;;0.10;0.10;;;1.80;99.90;0.50;97254.00;;;;5072159;28;20240;-75
2022/12/03 01:49:44;;;;;;;0.10;0.10;;;1.80;99.90;0.50;97223.00;;;;5071425;28;20221;-75
2022/12/03 01:52:16;;;;;;;0.10;0.10;;;1.80;99.90;0.50;97239.00;;;;5071939;28;20601;-75
2022/12/03 01:54:49;;;;;;;0.10;0.10;;;1.80;99.90;0.50;97227.00;;;;5071703;28;20224;-76
2022/12/03 01:57:23;;;;;;;0.10;0.10;;;1.90;99.90;0.50;97246.00;;;;5071932;28;20198;-74
2022/12/03 01:59:53;;;;;;;0.10;0.10;;;1.80;99.90;0.50;97246.00;;;;5071954;28;20625;-75
2022/12/03 02:02:24;;;;;;;0.10;0.10;;;1.90;99.90;0.50;97246.00;;;;5072478;28;20642;-75
2022/12/03 02:04:54;;;;;;;0.10;0.10;;;1.90;99.90;0.50;97233.00;;;;5078502;28;20221;-75
2022/12/03 02:07:27;;;;;;;0.10;0.10;;;1.90;99.90;0.50;97261.00;;;;5071338;28;20568;-76
2022/12/03 02:10:00;;;;;;;0.17;0.17;;;1.90;99.90;0.50;97246.00;;;;5071281;28;20193;-75
2022/12/03 02:12:36;;;;;;;0.10;0.10;;;1.90;99.90;0.60;97240.00;;;;5071527;28;20193;-74
2022/12/03 02:15:07;;;;;;;0.10;0.10;;;1.90;99.90;0.60;97196.00;;;;5072115;28;20213;-75
2022/12/03 02:17:36;;;;;;;0.10;0.10;;;1.90;99.90;0.60;97230.00;;;;5071473;28;20198;-73
2022/12/03 02:20:10;;;;;;;0.10;0.10;;;1.90;99.90;0.60;97231.00;;;;5069997;28;20224;-74
2022/12/03 02:22:47;;;;;;;0.10;0.10;;;1.90;99.90;0.60;97237.00;;;;5061013;28;20206;-74
2022/12/03 02:25:22;;;;;;;0.15;0.15;;;1.90;99.90;0.60;97226.00;;;;5070583;28;20209;-74
2022/12/03 02:27:53;;;;;;;0.10;0.10;;;1.90;99.90;0.60;97224.00;;;;5070519;28;20193;-74
2022/12/03 02:30:26;;;;;;;0.10;0.10;;;1.90;99.90;0.60;97235.00;;;;5070911;28;20738;-75
2022/12/03 02:32:55;;;;;;;0.10;0.10;;;1.90;99.90;0.60;97222.00;;;;5070970;28;20673;-75
2022/12/03 02:35:26;;;;;;;0.10;0.10;;;1.90;99.90;0.40;97227.00;;;;5071313;28;20266;-75
2022/12/03 02:37:59;;;;;;;0.10;0.10;;;1.90;99.90;0.60;97192.00;;;;5061175;28;20202;-74
2022/12/03 02:40:34;;;;;;;0.10;0.10;;;1.90;99.90;0.60;97109.00;;;;5070291;28;20207;-74
2022/12/03 02:43:03;;;;;;;0.10;0.10;;;1.90;99.90;0.60;97235.00;;;;5063939;28;20263;-75
2022/12/03 02:45:35;;;;;;;0.10;0.10;;;1.90;99.90;0.50;97230.00;;;;5067306;28;20220;-76
2022/12/03 02:48:09;;;;;;;0.10;0.10;;;1.90;99.90;0.50;97194.00;;;;5070694;28;20202;-75
2022/12/03 02:50:41;;;;;;;0.10;0.10;;;1.90;99.90;0.50;97231.00;;;;5070637;28;20193;-75
2022/12/03 02:53:14;;;;;;;0.10;0.10;;;1.80;99.90;0.50;97230.00;;;;5070828;28;20603;-74
2022/12/03 02:55:45;;;;;;;0.10;0.10;;;1.90;99.90;0.40;97242.00;;;;5070932;28;20251;-73
2022/12/03 02:58:14;;;;;;;0.10;0.10;;;1.80;99.90;0.40;97241.00;;;;5069836;28;20332;-74
2022/12/03 03:00:44;;;;;;;0.20;0.20;;;1.80;99.90;0.40;97224.00;;;;5070125;28;20615;-73
2022/12/03 03:03:13;;;;;;;0.10;0.10;;;1.80;99.90;0.40;97232.00;;;;5070953;28;20212;-75
2022/12/03 03:05:41;;;;;;;0.10;0.10;;;1.80;99.90;0.50;97237.00;;;;5064400;28;20217;-75
2022/12/03 03:08:12;;;;;;;0.10;0.10;;;1.80;99.90;0.50;97232.00;;;;5065957;28;20673;-76
2022/12/03 03:10:44;;;;;;;0.10;0.10;;;1.80;99.90;0.50;97245.00;;;;5066347;28;20315;-75
2022/12/03 03:13:18;;;;;;;0.10;0.10;;;1.80;99.90;0.40;97243.00;;;;5065542;28;20197;-75
2022/12/03 03:15:47;;;;;;;0.10;0.10;;;1.80;99.90;0.40;97252.00;;;;5070744;28;20209;-76
2022/12/03 03:18:16;;;;;;;0.10;0.10;;;1.80;99.90;0.50;97256.00;;;;5070080;28;20194;-76
2022/12/03 03:20:45;;;;;;;0.10;0.10;;;1.90;99.90;0.50;97256.00;;;;5070496;28;20738;-76
2022/12/03 03:23:17;;;;;;;0.10;0.10;;;1.80;99.90;0.40;97271.00;;;;5070927;28;20301;-76
2022/12/03 03:25:49;;;;;;;0.10;0.10;;;1.80;99.90;0.40;97241.00;;;;5072022;28;20669;-75
2022/12/03 03:28:20;;;;;;;0.10;0.10;;;1.80;99.90;0.40;97242.00;;;;5073227;28;20197;-76
2022/12/03 03:30:48;;;;;;;0.10;0.10;;;1.80;99.90;0.40;97240.00;;;;5073604;28;20228;-76
2022/12/03 03:33:17;;;;;;;0.10;0.10;;;1.80;99.90;0.40;97248.00;;;;5073034;28;20198;-75
2022/12/03 03:35:47;;;;;;;0.10;0.10;;;1.80;99.90;0.50;97260.00;;;;5072830;28;20568;-76
2022/12/03 03:38:18;;;;;;;0.10;0.10;;;1.80;99.90;0.40;97235.00;;;;5071611;28;20194;-76
2022/12/03 03:40:50;;;;;;;0.10;0.10;;;1.80;99.90;0.40;97236.00;;;;5071292;28;20251;-75
2022/12/03 03:43:20;;;;;;;0.10;0.10;;;1.80;99.90;0.40;97244.00;;;;5072225;28;20198;-75
2022/12/03 03:45:50;;;;;;;0.10;0.10;;;1.80;99.90;0.40;97248.00;;;;5070324;28;20243;-72
2022/12/03 03:48:20;;;;;;;0.10;0.10;;;1.80;99.90;0.40;97235.00;;;;5069815;28;20687;-73
2022/12/03 03:50:49;;;;;;;0.10;0.10;;;1.80;99.90;0.40;97257.00;;;;5069860;28;20251;-74
2022/12/03 03:53:19;;;;;;;0.10;0.10;;;1.80;99.90;0.40;97237.00;;;;5070293;28;20220;-74
2022/12/03 03:55:49;;;;;;;0.10;0.10;;;1.80;99.90;0.50;97255.00;;;;5070206;28;20251;-74
2022/12/03 03:58:17;;;;;;;0.10;0.10;;;1.80;99.90;0.50;97262.00;;;;5069779;28;20263;-73
2022/12/03 04:00:46;;;;;;;0.10;0.10;;;1.90;99.90;0.50;97249.00;;;;5069637;28;20198;-73
2022/12/03 04:03:14;;;;;;;0.10;0.10;;;1.80;99.90;0.50;97243.00;;;;5070260;28;20194;-73
2022/12/03 04:05:42;;;;;;;0.10;0.10;;;1.90;99.90;0.50;97238.00;;;;5070157;28;20727;-73
2022/12/03 04:08:10;;;;;;;0.10;0.10;;;1.80;99.90;0.50;97244.00;;;;5061398;28;20202;-74
2022/12/03 04:13:26;;;;;;;0.10;0.10;;;1.90;99.90;0.50;97193.00;;;;5073877;28;20247;-73
2022/12/03 04:15:54;;;;;;;0.10;0.10;;;1.90;99.90;0.50;97248.00;;;;5073313;28;20857;-73
2022/12/03 04:23:55;;;;;;;0.10;0.10;;;1.90;99.90;0.50;97228.00;;;;5073339;28;20225;-73
2022/12/03 04:29:10;;;;;;;0.15;0.15;;;1.80;99.90;0.40;97215.00;;;;5066321;28;20647;-73
2022/12/03 04:37:11;;;;;;;0.20;0.20;;;1.80;99.90;0.40;97221.00;;;;5067859;28;20201;-72
2022/12/03 04:39:39;;;;;;;0.10;0.10;;;1.80;99.90;0.40;97223.00;;;;5072503;28;20190;-72
2022/12/03 04:42:08;;;;;;;0.10;0.10;;;1.80;99.90;0.40;97222.00;;;;5073258;28;20194;-72
2022/12/03 04:44:37;;;;;;;0.10;0.10;;;1.70;99.90;0.30;97223.00;;;;5073117;28;20217;-72
2022/12/03 04:47:10;;;;;;;0.10;0.10;;;1.70;99.90;0.40;97228.00;;;;5067181;28;20197;-72
2022/12/03 04:49:41;;;;;;;0.10;0.10;;;1.70;99.90;0.40;97223.00;;;;5072308;28;20198;-72
2022/12/03 04:52:10;;;;;;;0.10;0.10;;;1.70;99.90;0.30;97213.00;;;;5073233;28;20189;-72
2022/12/03 04:54:39;;;;;;;0.10;0.10;;;1.70;99.90;0.40;97212.00;;;;5072574;28;20221;-72
2022/12/03 04:57:09;;;;;;;0.10;0.10;;;1.70;99.90;0.40;97219.00;;;;5073012;28;20206;-72
2022/12/03 04:59:39;;;;;;;0.10;0.10;;;1.70;99.90;0.30;97231.00;;;;5070173;28;20201;-72
2022/12/03 05:02:08;;;;;;;0.10;0.10;;;1.70;99.90;0.30;97228.00;;;;5065505;28;20201;-73
2022/12/03 05:04:36;;;;;;;0.10;0.10;;;1.70;99.90;0.40;97216.00;;;;5072662;28;20621;-73
2022/12/03 05:07:04;;;;;;;0.10;0.10;;;1.70;99.90;0.30;97227.00;;;;5073278;28;20198;-73
2022/12/03 05:09:32;;;;;;;0.10;0.10;;;1.70;99.90;0.30;97228.00;;;;5071677;28;20190;-73
2022/12/03 05:12:01;;;;;;;0.10;0.10;;;1.70;99.90;0.30;97227.00;;;;5072827;28;20189;-73
2022/12/03 05:14:29;;;;;;;0.10;0.10;;;1.70;99.90;0.40;97235.00;;;;5072142;28;20221;-73
2022/12/03 05:16:58;;;;;;;0.10;0.10;;;1.70;99.90;0.30;97229.00;;;;5072384;28;20197;-72
2022/12/03 05:20:40;;;;;;;0.20;0.20;;;1.70;99.90;0.30;97220.00;;;;5071614;28;20194;-73
2022/12/03 05:22:14;;;;;;;0.10;0.10;;;1.70;99.90;0.20;97223.00;;;;5059888;28;20206;-73
2022/12/03 05:24:42;;;;;;;0.10;0.10;;;1.70;99.90;0.20;97222.00;;;;5071901;28;20306;-72
2022/12/03 05:27:10;;;;;;;0.10;0.10;;;1.70;99.90;0.30;97243.00;;;;5072056;28;20194;-73
2022/12/03 05:29:38;;;;;;;0.10;0.10;;;1.70;99.90;0.30;97230.00;;;;5071304;28;20205;-73
2022/12/03 05:32:08;;;;;;;0.10;0.10;;;1.70;99.90;0.30;97230.00;;;;5071936;28;20276;-74
2022/12/03 05:34:36;;;;;;;0.10;0.10;;;1.70;99.90;0.30;97220.00;;;;5072516;28;20621;-73
2022/12/03 05:37:04;;;;;;;0.10;0.10;;;1.70;99.90;0.40;97215.00;;;;5072348;28;20204;-74
2022/12/03 05:39:32;;;;;;;0.10;0.10;;;1.80;99.90;0.40;97236.00;;;;5070726;28;20194;-72
2022/12/03 05:44:46;;;;;;;0.10;0.10;;;1.80;99.90;0.30;97222.00;;;;5071919;28;20724;-72
2022/12/03 05:47:15;;;;;;;0.10;0.10;;;1.70;99.90;0.40;97229.00;;;;5071851;28;20677;-73
2022/12/03 05:49:43;;;;;;;0.10;0.10;;;1.80;99.90;0.20;97233.00;;;;5071133;28;20605;-73
2022/12/03 05:52:11;;;;;;;0.10;0.10;;;1.70;99.90;0.30;97226.00;;;;5071872;28;20251;-73
2022/12/03 05:54:40;;;;;;;0.10;0.10;;;1.70;99.90;0.30;97204.00;;;;5057225;28;20213;-74
2022/12/03 05:57:08;;;;;;;0.10;0.10;;;1.70;99.90;0.20;97196.00;;;;5071542;28;20394;-75
2022/12/03 05:59:36;;;;;;;0.10;0.10;;;1.70;99.90;0.30;97191.00;;;;5070902;28;20196;-74
2022/12/03 06:02:04;;;;;;;0.10;0.10;;;1.70;99.90;0.30;97140.00;;;;5070250;28;20247;-75
2022/12/03 06:04:33;;;;;;;0.10;0.10;;;1.70;99.90;0.20;97192.00;;;;5071382;28;20218;-74
2022/12/03 06:07:02;;;;;;;0.10;0.10;;;1.60;99.90;0.20;97193.00;;;;5071480;28;20251;-74
2022/12/03 06:09:30;;;;;;;0.10;0.10;;;1.70;99.90;0.30;97214.00;;;;5070746;28;20240;-74
2022/12/03 06:11:58;;;;;;;0.10;0.10;;;1.70;99.90;0.30;97194.00;;;;5071451;28;20205;-74
2022/12/03 06:14:26;;;;;;;0.10;0.10;;;1.70;99.90;0.40;97195.00;;;;5071333;28;20241;-74
2022/12/03 06:16:54;;;;;;;0.10;0.10;;;1.80;99.90;0.40;97202.00;;;;5071282;28;20263;-73
2022/12/03 06:19:22;;;;;;;0.10;0.10;;;1.80;99.90;0.40;97210.00;;;;5063601;28;20255;-74
2022/12/03 06:21:52;;;;;;;0.10;0.10;;;1.80;99.90;0.50;97208.00;;;;5072203;28;20746;-75
2022/12/03 06:24:20;;;;;;;0.10;0.10;;;1.80;99.90;0.40;97208.00;;;;5070978;28;20834;-73
2022/12/03 06:26:48;;;;;;;0.10;0.10;;;1.80;99.90;0.40;97217.00;;;;5071083;28;20283;-74
2022/12/03 06:29:16;;;;;;;0.10;0.10;;;1.80;99.90;0.40;97220.00;;;;5070267;28;20660;-74
2022/12/03 06:31:44;;;;;;;0.10;0.10;;;1.80;99.90;0.40;97231.00;;;;5070601;28;20194;-74
2022/12/03 06:34:12;;;;;;;0.10;0.10;;;1.80;99.90;0.40;97227.00;;;;5070710;28;20232;-74
2022/12/03 06:36:40;;;;;;;0.10;0.10;;;1.80;99.90;0.40;97210.00;;;;5071072;28;20616;-74
2022/12/03 06:39:10;;;;;;;0.10;0.10;;;1.80;99.90;0.30;97224.00;;;;5066289;28;20621;-74
2022/12/03 06:41:38;;;;;;;0.10;0.10;;;1.70;99.90;0.30;97223.00;;;;5069535;28;20198;-74
2022/12/03 06:44:07;;;;;;;0.10;0.10;;;1.70;99.90;0.40;97222.00;;;;5070946;28;20270;-74
2022/12/03 06:46:35;;;;;;;0.10;0.10;;;1.80;99.90;0.40;97220.00;;;;5070737;28;20679;-73
2022/12/03 06:49:03;;;;;;;0.10;0.10;;;1.80;99.90;0.20;97223.00;;;;5062567;28;20685;-74
2022/12/03 06:51:31;;;;;;;0.10;0.10;;;1.90;99.90;0.50;97220.00;;;;5070805;28;20204;-73
2022/12/03 06:53:59;;;;;;;0.10;0.10;;;1.90;99.90;0.50;97210.00;;;;5071354;28;20221;-75
2022/12/03 06:56:29;;;;;;;0.10;0.10;;;1.90;99.90;0.50;97208.00;;;;5072092;28;20225;-74
2022/12/03 06:59:05;;;;;;;0.10;0.10;;;1.90;99.90;0.50;97205.00;;;;5063013;28;20189;-74
2022/12/03 07:01:33;;;;;;;0.10;0.10;;;1.90;99.90;0.50;97203.00;;;;5071126;28;20193;-74
2022/12/03 07:04:01;;;;;;;0.10;0.10;;;1.90;99.90;0.50;97204.00;;;;5071053;28;20216;-74
2022/12/03 07:06:29;;;;;;;0.10;0.10;;;1.90;99.90;0.50;97205.00;;;;5071342;28;20267;-76
2022/12/03 07:08:57;;;;;;;0.10;0.10;;;1.90;99.90;0.50;97203.00;;;;5070649;28;20185;-75
2022/12/03 07:11:31;;;;;;;0.10;0.10;;;1.90;99.90;0.50;97200.00;;;;5070573;28;20197;-77
2022/12/03 07:14:02;;;;;;;0.10;0.10;;;1.80;99.90;0.40;97224.00;;;;5070817;28;20304;-77
2022/12/03 07:16:33;;;;;;;0.10;0.10;;;1.80;99.90;0.40;97219.00;;;;5070808;28;20263;-74
2022/12/03 07:19:01;;;;;;;0.10;0.10;;;1.80;99.90;0.50;97212.00;;;;5069705;28;20197;-74
2022/12/03 07:21:29;;;;;;;0.10;0.10;;;1.80;99.90;0.40;97224.00;;;;5070417;28;20239;-74
2022/12/03 07:23:58;;;;;;;0.10;0.10;;;1.80;99.90;0.40;97212.00;;;;5070556;28;20210;-74
2022/12/03 07:26:26;;;;;;;0.10;0.10;;;1.80;99.90;0.40;97210.00;;;;5070726;28;20259;-74
2022/12/03 07:28:55;;;;;;;0.10;0.10;;;1.80;99.90;0.40;97213.00;;;;5069389;28;20225;-74
2022/12/03 07:31:25;;;;;;;0.10;0.10;;;1.80;99.90;0.40;97215.00;;;;5070701;28;20198;-74
2022/12/03 07:33:53;;;;;;;0.20;0.20;;;1.80;99.90;0.30;97220.00;;;;5070898;28;20713;-73
2022/12/03 07:36:21;;;;;;;0.10;0.10;;;1.70;99.90;0.20;97214.00;;;;5057810;28;20276;-73
2022/12/03 07:38:49;;;;;;;0.10;0.10;;;1.70;99.90;0.30;97197.00;;;;5067960;28;20236;-73
2022/12/03 07:41:17;;;;;;;0.10;0.10;;;1.70;99.90;0.30;97198.00;;;;5070018;28;20208;-73
2022/12/03 07:43:45;;;;;;;0.10;0.10;;;1.70;99.90;0.30;97204.00;;;;5071435;28;20233;-73
2022/12/03 07:46:14;;;;;;;0.10;0.10;;;1.70;99.90;0.40;97200.00;;;;5074264;28;20190;-73
2022/12/03 07:48:44;;;;;;;0.10;0.10;;;1.70;99.90;0.30;97188.00;;;;5073268;28;20667;-73
2022/12/03 07:51:12;;;;;;;0.10;0.10;;;1.70;99.90;0.40;97219.00;;;;5074029;28;20235;-75
2022/12/03 07:53:42;;;;;;;0.10;0.10;;;1.70;99.90;0.40;97207.00;;;;5059142;28;20234;-75
2022/12/03 07:56:10;;;;;;;0.10;0.10;;;1.70;99.90;0.20;97198.00;;;;5074183;28;20290;-74
2022/12/03 07:58:39;;;;;;;0.10;0.10;;;1.70;99.90;0.30;97217.00;;;;5074520;28;20268;-75
2022/12/03 08:01:07;;;;;;;0.10;0.10;;;1.60;99.90;0.20;97215.00;;;;5074543;28;20702;-74
2022/12/03 08:03:35;;;;;;;0.10;0.10;;;1.60;99.90;0.20;97216.00;;;;5073920;28;20217;-74
2022/12/03 08:06:04;;;;;;;0.10;0.10;;;1.60;99.90;0.20;97222.00;;;;5071827;28;20198;-74
2022/12/03 08:08:33;;;;;;;0.10;0.10;;;1.60;99.90;0.20;97235.00;;;;5072585;28;20205;-74
2022/12/03 08:11:02;;;;;;;0.10;0.10;;;1.60;99.90;0.20;97219.00;;;;5073116;28;20193;-74
2022/12/03 08:13:33;;;;;;;0.10;0.10;;;1.60;99.90;0.20;97236.00;;;;5073542;28;20657;-74
2022/12/03 08:16:18;;;;;;;0.10;0.10;;;1.60;99.90;0.10;97180.00;;;;5073489;28;20612;-74
2022/12/03 08:18:49;;;;;;;0.10;0.10;;;1.60;99.90;0.10;97183.00;;;;5072701;28;20669;-74
2022/12/03 08:21:21;;;;;;;0.10;0.10;;;1.50;99.90;0.10;97232.00;;;;5060981;28;20248;-74
2022/12/03 08:23:49;;;;;;;0.10;0.10;;;1.60;99.90;0.30;97231.00;;;;5071926;28;20229;-75
2022/12/03 08:26:23;;;;;;;0.10;0.10;;;1.60;99.90;0.40;97225.00;;;;5073654;28;20315;-75
2022/12/03 08:28:52;;;;;;;0.10;0.10;;;1.70;99.90;0.40;97232.00;;;;5072491;28;20798;-75
2022/12/03 08:31:24;;;;;;;0.10;0.10;;;1.70;99.90;0.50;97228.00;;;;5073290;28;20235;-74
2022/12/03 08:34:16;;;;;;;0.10;0.10;;;1.80;99.90;0.50;97233.00;;;;5064308;28;20282;-75
2022/12/03 08:36:47;;;;;;;0.10;0.10;;;1.80;99.90;0.40;97232.00;;;;5073153;28;20222;-74
2022/12/03 08:39:28;;;;;;;0.10;0.10;;;1.80;99.90;0.40;97240.00;;;;5067885;28;20823;-74
2022/12/03 08:44:54;;;;;;;0.10;0.10;;;1.80;99.90;0.50;97238.00;;;;5071524;28;20221;-74
2022/12/03 08:47:24;;;;;;;0.10;0.10;;;1.90;99.90;0.50;97226.00;;;;5073019;28;20215;-74
2022/12/03 08:49:58;;;;;;;0.10;0.10;;;1.80;99.90;0.40;97241.00;;;;5072774;28;20202;-74
2022/12/03 08:52:32;;;;;;;0.10;0.10;;;1.80;99.90;0.50;97235.00;;;;5073583;28;20205;-74
2022/12/03 08:55:31;;;;;;;0.10;0.10;;;1.80;99.90;0.50;97229.00;;;;5072416;28;20708;-73
2022/12/03 08:58:00;;;;;;;0.10;0.10;;;1.80;99.90;0.50;97241.00;;;;5071992;28;20890;-74
2022/12/03 09:00:28;;;;;;;0.10;0.10;;;1.80;99.90;0.50;97242.00;;;;5072506;28;20194;-74
2022/12/03 09:03:00;;;;;;;0.10;0.10;;;1.80;99.90;0.60;97256.00;;;;5066099;28;20224;-74
2022/12/03 09:05:32;;;;;;;0.10;0.10;;;1.90;99.90;0.60;97242.00;;;;5072498;28;20218;-74
2022/12/03 09:08:01;;;;;;;0.10;0.10;;;1.90;99.90;0.60;97239.00;;;;5072122;28;20283;-74
2022/12/03 09:10:29;;;;;;;0.10;0.10;;;1.90;99.90;0.70;97260.00;;;;5071933;28;20475;-75
2022/12/03 09:12:58;;;;;;;0.10;0.10;;;1.90;99.90;0.70;97269.00;;;;5072639;28;20190;-74
2022/12/03 09:15:27;;;;;;;0.10;0.10;;;2.00;99.90;0.60;97233.00;;;;5071721;28;20528;-71
2022/12/03 09:17:55;;;;;;;0.10;0.10;;;2.00;99.90;0.60;97234.00;;;;5064478;28;20763;-71
2022/12/03 09:20:23;;;;;;;0.10;0.10;;;2.00;99.90;0.70;97232.00;;;;5072185;28;20627;-71
2022/12/03 09:22:51;;;;;;;0.10;0.10;;;2.00;99.90;0.70;97215.00;;;;5070727;28;20194;-71
2022/12/03 09:25:20;;;;;;;0.10;0.10;;;2.00;99.90;0.70;97229.00;;;;5063877;28;20437;-74
2022/12/03 09:27:48;;;;;;;0.10;0.10;;;2.00;99.90;0.80;97238.00;;;;5062357;28;20202;-74
2022/12/03 09:30:17;;;;;;;0.10;0.10;;;2.10;99.90;0.80;97221.00;;;;5060672;28;20220;-75
2022/12/03 09:32:45;;;;;;;0.10;0.10;;;2.10;99.90;0.70;97234.00;;;;5072086;28;20201;-76
2022/12/03 09:35:13;;;;;;;0.10;0.10;;;2.10;99.90;0.80;97232.00;;;;5072310;28;20266;-75
2022/12/03 09:37:41;;;;;;;0.10;0.10;;;2.10;99.90;0.70;97227.00;;;;5071286;28;20298;-75
2022/12/03 09:40:11;;;;;;;0.10;0.10;;;2.00;99.90;0.70;97220.00;;;;5065925;28;20194;-75
2022/12/03 09:42:41;;;;;;;0.10;0.10;;;2.10;99.90;0.60;97210.00;;;;5070817;28;20202;-75
2022/12/03 09:45:14;;;;;;;0.10;0.10;;;2.00;99.90;0.60;97216.00;;;;5070613;28;20210;-75
2022/12/03 09:47:47;;;;;;;0.08;0.08;;;2.00;99.90;0.70;97154.00;;;;5071306;28;20198;-75
2022/12/03 09:50:21;;;;;;;0.10;0.10;;;2.00;99.90;0.70;97202.00;;;;5070487;28;20201;-76
2022/12/03 09:52:53;;;;;;;0.10;0.10;;;2.00;99.90;0.70;97205.00;;;;5064015;28;20703;-76
2022/12/03 09:55:25;;;;;;;0.15;0.15;;;2.00;99.90;0.70;97192.00;;;;5067133;28;20213;-76
2022/12/03 09:57:56;;;;;;;0.10;0.10;;;2.00;99.90;0.80;97201.00;;;;5065398;28;20700;-76
2022/12/03 10:00:27;;;;;;;0.10;0.10;;;2.10;99.90;0.80;97189.00;;;;5071758;28;20224;-76
2022/12/03 10:03:02;;;;;;;0.10;0.10;;;2.10;99.90;0.80;97200.00;;;;5067846;28;20200;-76
2022/12/03 10:05:31;;;;;;;0.10;0.10;;;2.10;99.90;0.80;97190.00;;;;5071245;28;20251;-75
2022/12/03 10:08:06;;;;;;;0.10;0.10;;;2.10;99.90;0.80;97194.00;;;;5071021;28;20224;-75
2022/12/03 10:10:36;;;;;;;0.10;0.10;;;2.20;99.90;0.80;97190.00;;;;5071413;28;20635;-75
2022/12/03 10:13:12;;;;;;;0.10;0.10;;;2.20;99.90;0.80;97184.00;;;;5071401;28;20239;-74
2022/12/03 10:15:40;;;;;;;0.10;0.10;;;2.20;99.90;0.90;97184.00;;;;5071433;28;20212;-74
2022/12/03 10:18:18;;;;;;;0.20;0.20;;;2.20;99.90;0.90;97192.00;;;;5070967;28;20221;-75
2022/12/03 10:20:47;;;;;;;0.10;0.10;;;2.20;99.90;0.90;97183.00;;;;5071405;28;20251;-75
2022/12/03 10:23:25;;;;;;;0.10;0.10;;;2.20;99.90;0.80;97170.00;;;;5071291;28;20541;-75
2022/12/03 10:25:57;;;;;;;0.10;0.10;;;2.20;99.90;0.80;97169.00;;;;5063863;28;20232;-74
2022/12/03 10:28:33;;;;;;;0.10;0.10;;;2.20;99.90;0.90;97154.00;;;;5070894;28;20189;-75
2022/12/03 10:31:05;;;;;;;0.10;0.10;;;2.20;99.90;0.90;97192.00;;;;5071434;28;20250;-75
2022/12/03 10:33:36;;;;;;;0.10;0.10;;;2.20;99.90;0.90;97159.00;;;;5071520;28;20752;-75
2022/12/03 10:36:22;;;;;;;0.10;0.10;;;2.30;99.90;1.00;97167.00;;;;5063837;28;20223;-75
2022/12/03 10:39:13;;;;;;;0.10;0.10;;;2.30;99.90;0.90;97086.00;;;;5071161;28;20633;-76
2022/12/03 10:41:43;;;;;;;0.10;0.10;;;2.30;99.90;1.00;97165.00;;;;5071213;28;20216;-75
2022/12/03 10:44:18;;;;;;;0.20;0.20;;;2.30;99.90;0.90;97165.00;;;;5070872;28;20221;-75
2022/12/03 10:47:05;;;;;;;0.10;0.10;;;2.20;99.90;0.90;97147.00;;;;5070776;28;20620;-75
2022/12/03 10:49:33;;;;;;;0.10;0.10;;;2.20;99.90;0.90;97150.00;;;;5070908;28;20693;-75
2022/12/03 10:52:02;;;;;;;0.10;0.10;;;2.20;99.90;0.90;97150.00;;;;5071370;28;20205;-75
2022/12/03 10:54:33;;;;;;;0.10;0.10;;;2.20;99.90;0.80;97146.00;;;;5070428;28;20236;-75
2022/12/03 10:57:03;;;;;;;0.10;0.10;;;2.20;99.90;0.80;97165.00;;;;5071252;28;20622;-75
2022/12/03 10:59:34;;;;;;;0.10;0.10;;;2.20;99.90;0.80;97143.00;;;;5069957;28;20205;-75
2022/12/03 11:02:05;;;;;;;0.10;0.10;;;2.20;99.90;0.80;97149.00;;;;5070967;28;20243;-75
2022/12/03 11:04:36;;;;;;;0.10;0.10;;;2.20;99.90;0.90;97152.00;;;;5071038;28;20217;-75
2022/12/03 11:07:14;;;;;;;0.10;0.10;;;2.20;99.90;0.90;97139.00;;;;5061780;28;20549;-75
2022/12/03 11:09:46;;;;;;;0.10;0.10;;;2.20;99.90;0.90;97141.00;;;;5068479;28;20197;-74
2022/12/03 11:12:21;;;;;;;0.10;0.10;;;2.20;99.90;0.90;97135.00;;;;5071189;28;20194;-75
2022/12/03 11:15:15;;;;;;;0.10;0.10;;;2.20;99.90;0.80;97146.00;;;;5070700;28;20221;-75
2022/12/03 11:17:50;;;;;;;0.10;0.10;;;2.20;99.90;0.70;97138.00;;;;5070744;28;20262;-75
2022/12/03 11:21:02;;;;;;;0.15;0.15;;;2.10;99.90;0.80;97141.00;;;;5075613;28;20232;-75
2022/12/03 11:24:27;;;;;;;0.10;0.10;;;2.10;99.90;0.80;97143.00;;;;5070557;28;20639;-75
2022/12/03 11:27:22;;;;;;;0.10;0.10;;;2.20;99.90;0.90;97131.00;;;;5073725;28;20202;-75
2022/12/03 11:30:01;;;;;;;0.10;0.10;;;2.20;99.90;0.80;97066.00;;;;5074693;28;20209;-75
2022/12/03 11:33:21;;;;;;;0.10;0.10;;;2.20;99.90;0.90;97125.00;;;;5073926;28;20205;-75
2022/12/03 11:36:14;;;;;;;0.10;0.10;;;2.20;99.90;0.90;97106.00;;;;5073613;28;20278;-75
2022/12/03 11:38:56;;;;;;;0.10;0.10;;;2.20;99.90;0.90;97101.00;;;;5074193;28;20269;-74
2022/12/03 11:41:31;;;;;;;0.10;0.10;;;2.20;99.90;0.80;97098.00;;;;5074363;28;20190;-74
2022/12/03 11:44:30;;;;;;;0.10;0.10;;;2.20;99.90;0.80;97103.00;;;;5074435;28;20213;-74
2022/12/03 11:47:07;;;;;;;0.10;0.10;;;2.20;99.90;0.80;97101.00;;;;5065727;28;20210;-75
2022/12/03 11:49:47;;;;;;;0.10;0.10;;;2.20;99.90;0.80;97107.00;;;;5060665;28;20666;-75
2022/12/03 11:52:28;;;;;;;0.10;0.10;;;2.20;99.90;0.90;97081.00;;;;5074512;28;20276;-74